sensor_id;sensor_type;location;lat;lon;timestamp;P1;durP1;ratioP1;P2;durP2;ratioP2
11313;SDS011;5712;48.858;9.206;2022-08-04T00:00:26;2.50;;;2.30;;
11313;SDS011;5712;48.858;9.206;2022-08-04T00:03:09;2.60;;;2.40;;
11313;SDS011;5712;48.858;9.206;2022-08-04T00:05:42;2.60;;;2.40;;
11313;SDS011;5712;48.858;9.206;2022-08-04T00:08:33;3.57;;;2.70;;
11313;SDS011;5712;48.858;9.206;2022-08-04T00:11:08;3.00;;;2.70;;
11313;SDS011;5712;48.858;9.206;2022-08-04T00:13:36;3.07;;;2.77;;
11313;SDS011;5712;48.858;9.206;2022-08-04T00:16:05;2.60;;;2.40;;
11313;SDS011;5712;48.858;9.206;2022-08-04T00:18:34;2.93;;;2.63;;
11313;SDS011;5712;48.858;9.206;2022-08-04T00:21:06;3.03;;;2.73;;
11313;SDS011;5712;48.858;9.206;2022-08-04T00:23:36;3.87;;;3.07;;
11313;SDS011;5712;48.858;9.206;2022-08-04T00:26:04;3.20;;;2.90;;
11313;SDS011;5712;48.858;9.206;2022-08-04T00:28:34;2.83;;;2.63;;
11313;SDS011;5712;48.858;9.206;2022-08-04T00:31:02;4.40;;;2.90;;
11313;SDS011;5712;48.858;9.206;2022-08-04T00:33:29;3.00;;;2.80;;
11313;SDS011;5712;48.858;9.206;2022-08-04T00:35:56;3.33;;;2.60;;
11313;SDS011;5712;48.858;9.206;2022-08-04T00:38:25;3.00;;;2.77;;
11313;SDS011;5712;48.858;9.206;2022-08-04T00:40:54;3.77;;;2.93;;
11313;SDS011;5712;48.858;9.206;2022-08-04T00:43:30;2.80;;;2.60;;
11313;SDS011;5712;48.858;9.206;2022-08-04T00:49:24;3.97;;;2.80;;
11313;SDS011;5712;48.858;9.206;2022-08-04T00:52:13;2.83;;;2.63;;
11313;SDS011;5712;48.858;9.206;2022-08-04T00:54:56;3.30;;;2.50;;
11313;SDS011;5712;48.858;9.206;2022-08-04T00:57:36;3.00;;;2.70;;
11313;SDS011;5712;48.858;9.206;2022-08-04T01:00:15;2.53;;;2.33;;
11313;SDS011;5712;48.858;9.206;2022-08-04T01:02:47;2.70;;;2.50;;
11313;SDS011;5712;48.858;9.206;2022-08-04T01:05:25;3.23;;;2.43;;
11313;SDS011;5712;48.858;9.206;2022-08-04T01:08:03;2.87;;;2.50;;
11313;SDS011;5712;48.858;9.206;2022-08-04T01:10:47;2.67;;;2.47;;
11313;SDS011;5712;48.858;9.206;2022-08-04T01:13:47;2.70;;;2.47;;
11313;SDS011;5712;48.858;9.206;2022-08-04T01:16:26;2.47;;;2.27;;
11313;SDS011;5712;48.858;9.206;2022-08-04T01:18:56;2.60;;;2.40;;
11313;SDS011;5712;48.858;9.206;2022-08-04T01:21:52;2.77;;;2.50;;
11313;SDS011;5712;48.858;9.206;2022-08-04T01:27:43;2.50;;;2.30;;
11313;SDS011;5712;48.858;9.206;2022-08-04T01:30:26;2.90;;;2.60;;
11313;SDS011;5712;48.858;9.206;2022-08-04T01:32:55;2.73;;;2.53;;
11313;SDS011;5712;48.858;9.206;2022-08-04T01:35:29;3.00;;;2.70;;
11313;SDS011;5712;48.858;9.206;2022-08-04T01:38:03;3.30;;;2.60;;
11313;SDS011;5712;48.858;9.206;2022-08-04T01:40:38;2.77;;;2.50;;
11313;SDS011;5712;48.858;9.206;2022-08-04T01:43:07;3.17;;;2.87;;
11313;SDS011;5712;48.858;9.206;2022-08-04T01:45:37;2.90;;;2.60;;
11313;SDS011;5712;48.858;9.206;2022-08-04T01:48:05;3.00;;;2.80;;
11313;SDS011;5712;48.858;9.206;2022-08-04T01:50:33;3.20;;;2.90;;
11313;SDS011;5712;48.858;9.206;2022-08-04T01:53:02;3.33;;;3.03;;
11313;SDS011;5712;48.858;9.206;2022-08-04T01:55:29;3.23;;;2.93;;
11313;SDS011;5712;48.858;9.206;2022-08-04T01:57:57;3.67;;;3.10;;
11313;SDS011;5712;48.858;9.206;2022-08-04T02:00:26;4.53;;;3.30;;
11313;SDS011;5712;48.858;9.206;2022-08-04T02:02:55;3.30;;;2.80;;
11313;SDS011;5712;48.858;9.206;2022-08-04T02:05:23;3.00;;;2.80;;
11313;SDS011;5712;48.858;9.206;2022-08-04T02:08:01;3.60;;;2.73;;
11313;SDS011;5712;48.858;9.206;2022-08-04T02:10:42;3.23;;;2.93;;
11313;SDS011;5712;48.858;9.206;2022-08-04T02:13:20;2.83;;;2.60;;
11313;SDS011;5712;48.858;9.206;2022-08-04T02:15:57;2.60;;;2.30;;
11313;SDS011;5712;48.858;9.206;2022-08-04T02:18:29;2.80;;;2.60;;
11313;SDS011;5712;48.858;9.206;2022-08-04T02:20:58;3.30;;;2.83;;
11313;SDS011;5712;48.858;9.206;2022-08-04T02:23:28;2.67;;;2.47;;
11313;SDS011;5712;48.858;9.206;2022-08-04T02:25:56;3.40;;;2.53;;
11313;SDS011;5712;48.858;9.206;2022-08-04T02:28:28;2.60;;;2.40;;
11313;SDS011;5712;48.858;9.206;2022-08-04T02:31:02;4.37;;;2.83;;
11313;SDS011;5712;48.858;9.206;2022-08-04T02:33:41;2.83;;;2.47;;
11313;SDS011;5712;48.858;9.206;2022-08-04T02:36:09;3.90;;;2.83;;
11313;SDS011;5712;48.858;9.206;2022-08-04T02:38:41;3.53;;;2.90;;
11313;SDS011;5712;48.858;9.206;2022-08-04T02:41:19;2.70;;;2.50;;
11313;SDS011;5712;48.858;9.206;2022-08-04T02:43:48;3.90;;;2.40;;
11313;SDS011;5712;48.858;9.206;2022-08-04T02:46:15;4.73;;;2.90;;
11313;SDS011;5712;48.858;9.206;2022-08-04T02:48:45;2.97;;;2.67;;
11313;SDS011;5712;48.858;9.206;2022-08-04T02:51:13;3.17;;;2.60;;
11313;SDS011;5712;48.858;9.206;2022-08-04T02:53:40;2.90;;;2.70;;
11313;SDS011;5712;48.858;9.206;2022-08-04T02:56:08;2.87;;;2.63;;
11313;SDS011;5712;48.858;9.206;2022-08-04T02:58:39;3.27;;;2.97;;
11313;SDS011;5712;48.858;9.206;2022-08-04T03:01:10;2.67;;;2.47;;
11313;SDS011;5712;48.858;9.206;2022-08-04T03:03:38;3.20;;;3.00;;
11313;SDS011;5712;48.858;9.206;2022-08-04T03:09:14;3.17;;;2.80;;
11313;SDS011;5712;48.858;9.206;2022-08-04T03:12:05;3.03;;;2.60;;
11313;SDS011;5712;48.858;9.206;2022-08-04T03:15:04;4.03;;;3.00;;
11313;SDS011;5712;48.858;9.206;2022-08-04T03:18:09;3.03;;;2.80;;
11313;SDS011;5712;48.858;9.206;2022-08-04T03:24:08;4.10;;;2.90;;
11313;SDS011;5712;48.858;9.206;2022-08-04T03:30:06;5.50;;;3.33;;
11313;SDS011;5712;48.858;9.206;2022-08-04T03:32:42;3.67;;;3.10;;
11313;SDS011;5712;48.858;9.206;2022-08-04T03:35:35;3.50;;;3.20;;
11313;SDS011;5712;48.858;9.206;2022-08-04T03:41:35;3.40;;;3.10;;
11313;SDS011;5712;48.858;9.206;2022-08-04T03:44:19;3.53;;;3.23;;
11313;SDS011;5712;48.858;9.206;2022-08-04T03:47:09;3.90;;;3.13;;
11313;SDS011;5712;48.858;9.206;2022-08-04T03:49:55;3.90;;;3.33;;
11313;SDS011;5712;48.858;9.206;2022-08-04T03:52:55;3.73;;;3.37;;
11313;SDS011;5712;48.858;9.206;2022-08-04T03:58:47;4.93;;;3.63;;
11313;SDS011;5712;48.858;9.206;2022-08-04T04:07:36;4.20;;;3.50;;
11313;SDS011;5712;48.858;9.206;2022-08-04T04:10:24;4.47;;;4.07;;
11313;SDS011;5712;48.858;9.206;2022-08-04T04:16:16;5.20;;;4.23;;
11313;SDS011;5712;48.858;9.206;2022-08-04T04:19:05;4.17;;;3.73;;
11313;SDS011;5712;48.858;9.206;2022-08-04T04:21:53;5.57;;;3.97;;
11313;SDS011;5712;48.858;9.206;2022-08-04T04:27:31;4.93;;;4.07;;
11313;SDS011;5712;48.858;9.206;2022-08-04T04:30:06;4.87;;;4.40;;
11313;SDS011;5712;48.858;9.206;2022-08-04T04:35:34;4.83;;;4.30;;
11313;SDS011;5712;48.858;9.206;2022-08-04T04:41:03;6.57;;;4.00;;
11313;SDS011;5712;48.858;9.206;2022-08-04T04:46:47;4.17;;;3.77;;
11313;SDS011;5712;48.858;9.206;2022-08-04T04:49:24;4.97;;;3.63;;
11313;SDS011;5712;48.858;9.206;2022-08-04T04:51:57;3.97;;;3.53;;
11313;SDS011;5712;48.858;9.206;2022-08-04T04:54:36;5.50;;;3.40;;
11313;SDS011;5712;48.858;9.206;2022-08-04T04:57:09;4.00;;;3.30;;
11313;SDS011;5712;48.858;9.206;2022-08-04T04:59:42;4.57;;;3.30;;
11313;SDS011;5712;48.858;9.206;2022-08-04T05:02:34;3.50;;;3.20;;
11313;SDS011;5712;48.858;9.206;2022-08-04T05:05:21;3.40;;;3.00;;
11313;SDS011;5712;48.858;9.206;2022-08-04T05:11:05;5.33;;;3.90;;
11313;SDS011;5712;48.858;9.206;2022-08-04T05:13:43;3.57;;;3.23;;
11313;SDS011;5712;48.858;9.206;2022-08-04T05:16:13;6.40;;;4.13;;
11313;SDS011;5712;48.858;9.206;2022-08-04T05:18:43;4.20;;;3.37;;
11313;SDS011;5712;48.858;9.206;2022-08-04T05:21:23;3.50;;;3.20;;
11313;SDS011;5712;48.858;9.206;2022-08-04T05:23:59;4.40;;;3.20;;
11313;SDS011;5712;48.858;9.206;2022-08-04T05:26:30;3.63;;;3.23;;
11313;SDS011;5712;48.858;9.206;2022-08-04T05:29:01;6.00;;;3.40;;
11313;SDS011;5712;48.858;9.206;2022-08-04T05:31:33;3.40;;;3.10;;
11313;SDS011;5712;48.858;9.206;2022-08-04T05:34:04;3.57;;;2.97;;
11313;SDS011;5712;48.858;9.206;2022-08-04T05:36:37;3.50;;;3.17;;
11313;SDS011;5712;48.858;9.206;2022-08-04T05:39:09;4.17;;;3.20;;
11313;SDS011;5712;48.858;9.206;2022-08-04T05:41:39;3.73;;;3.13;;
11313;SDS011;5712;48.858;9.206;2022-08-04T05:44:08;2.93;;;2.70;;
11313;SDS011;5712;48.858;9.206;2022-08-04T05:46:35;3.43;;;2.50;;
11313;SDS011;5712;48.858;9.206;2022-08-04T05:49:02;2.70;;;2.23;;
11313;SDS011;5712;48.858;9.206;2022-08-04T05:51:29;2.83;;;2.53;;
11313;SDS011;5712;48.858;9.206;2022-08-04T05:53:58;3.85;;;2.45;;
11313;SDS011;5712;48.858;9.206;2022-08-04T05:56:27;5.60;;;2.50;;
11313;SDS011;5712;48.858;9.206;2022-08-04T05:58:57;3.40;;;2.63;;
11313;SDS011;5712;48.858;9.206;2022-08-04T06:01:24;2.67;;;2.40;;
11313;SDS011;5712;48.858;9.206;2022-08-04T06:03:53;3.15;;;2.78;;
11313;SDS011;5712;48.858;9.206;2022-08-04T06:06:22;2.92;;;2.55;;
11313;SDS011;5712;48.858;9.206;2022-08-04T06:08:48;4.93;;;2.53;;
11313;SDS011;5712;48.858;9.206;2022-08-04T06:11:16;3.67;;;2.30;;
11313;SDS011;5712;48.858;9.206;2022-08-04T06:13:47;2.53;;;2.30;;
11313;SDS011;5712;48.858;9.206;2022-08-04T06:16:19;3.88;;;2.42;;
11313;SDS011;5712;48.858;9.206;2022-08-04T06:18:49;2.53;;;2.33;;
11313;SDS011;5712;48.858;9.206;2022-08-04T06:21:20;3.03;;;2.47;;
11313;SDS011;5712;48.858;9.206;2022-08-04T06:23:48;2.85;;;2.25;;
11313;SDS011;5712;48.858;9.206;2022-08-04T06:26:19;2.80;;;2.25;;
11313;SDS011;5712;48.858;9.206;2022-08-04T06:28:47;2.72;;;2.20;;
11313;SDS011;5712;48.858;9.206;2022-08-04T06:31:16;2.95;;;2.05;;
11313;SDS011;5712;48.858;9.206;2022-08-04T06:33:57;2.67;;;2.20;;
11313;SDS011;5712;48.858;9.206;2022-08-04T06:36:26;5.47;;;2.45;;
11313;SDS011;5712;48.858;9.206;2022-08-04T06:38:53;2.50;;;2.13;;
11313;SDS011;5712;48.858;9.206;2022-08-04T06:41:22;2.72;;;2.40;;
11313;SDS011;5712;48.858;9.206;2022-08-04T06:43:49;2.63;;;2.20;;
11313;SDS011;5712;48.858;9.206;2022-08-04T06:46:17;2.60;;;1.85;;
11313;SDS011;5712;48.858;9.206;2022-08-04T06:48:44;3.03;;;2.00;;
11313;SDS011;5712;48.858;9.206;2022-08-04T06:51:12;3.50;;;2.00;;
11313;SDS011;5712;48.858;9.206;2022-08-04T06:53:39;2.33;;;2.13;;
11313;SDS011;5712;48.858;9.206;2022-08-04T06:56:06;3.53;;;2.13;;
11313;SDS011;5712;48.858;9.206;2022-08-04T06:58:35;2.78;;;2.38;;
11313;SDS011;5712;48.858;9.206;2022-08-04T07:01:03;2.72;;;2.15;;
11313;SDS011;5712;48.858;9.206;2022-08-04T07:03:30;2.30;;;2.03;;
11313;SDS011;5712;48.858;9.206;2022-08-04T07:05:57;2.78;;;2.15;;
11313;SDS011;5712;48.858;9.206;2022-08-04T07:08:25;2.30;;;2.15;;
11313;SDS011;5712;48.858;9.206;2022-08-04T07:10:52;4.45;;;2.22;;
11313;SDS011;5712;48.858;9.206;2022-08-04T07:13:20;3.33;;;2.20;;
11313;SDS011;5712;48.858;9.206;2022-08-04T07:15:49;3.38;;;2.25;;
11313;SDS011;5712;48.858;9.206;2022-08-04T07:18:17;2.05;;;1.92;;
11313;SDS011;5712;48.858;9.206;2022-08-04T07:20:44;2.67;;;1.85;;
11313;SDS011;5712;48.858;9.206;2022-08-04T07:23:12;2.30;;;2.10;;
11313;SDS011;5712;48.858;9.206;2022-08-04T07:25:41;3.45;;;2.38;;
11313;SDS011;5712;48.858;9.206;2022-08-04T07:28:09;2.58;;;2.10;;
11313;SDS011;5712;48.858;9.206;2022-08-04T07:30:35;2.90;;;2.20;;
11313;SDS011;5712;48.858;9.206;2022-08-04T07:33:05;2.58;;;1.85;;
11313;SDS011;5712;48.858;9.206;2022-08-04T07:35:33;3.15;;;2.05;;
11313;SDS011;5712;48.858;9.206;2022-08-04T07:38:00;2.30;;;2.10;;
11313;SDS011;5712;48.858;9.206;2022-08-04T07:40:26;4.18;;;1.95;;
11313;SDS011;5712;48.858;9.206;2022-08-04T07:42:54;2.63;;;2.15;;
11313;SDS011;5712;48.858;9.206;2022-08-04T07:45:20;2.80;;;2.00;;
11313;SDS011;5712;48.858;9.206;2022-08-04T07:47:49;3.42;;;2.20;;
11313;SDS011;5712;48.858;9.206;2022-08-04T07:50:17;2.28;;;2.10;;
11313;SDS011;5712;48.858;9.206;2022-08-04T07:52:44;3.42;;;2.30;;
11313;SDS011;5712;48.858;9.206;2022-08-04T07:55:11;2.20;;;2.00;;
11313;SDS011;5712;48.858;9.206;2022-08-04T07:57:38;2.08;;;1.88;;
11313;SDS011;5712;48.858;9.206;2022-08-04T08:00:06;3.40;;;2.20;;
11313;SDS011;5712;48.858;9.206;2022-08-04T08:02:34;2.53;;;2.33;;
11313;SDS011;5712;48.858;9.206;2022-08-04T08:05:01;1.80;;;1.70;;
11313;SDS011;5712;48.858;9.206;2022-08-04T08:07:30;2.22;;;2.03;;
11313;SDS011;5712;48.858;9.206;2022-08-04T08:09:57;2.03;;;1.83;;
11313;SDS011;5712;48.858;9.206;2022-08-04T08:12:23;3.15;;;2.00;;
11313;SDS011;5712;48.858;9.206;2022-08-04T08:14:51;2.33;;;2.05;;
11313;SDS011;5712;48.858;9.206;2022-08-04T08:17:17;2.08;;;1.90;;
11313;SDS011;5712;48.858;9.206;2022-08-04T08:19:44;2.03;;;1.85;;
11313;SDS011;5712;48.858;9.206;2022-08-04T08:22:11;2.28;;;1.92;;
11313;SDS011;5712;48.858;9.206;2022-08-04T08:24:39;2.13;;;2.03;;
11313;SDS011;5712;48.858;9.206;2022-08-04T08:27:05;3.58;;;2.08;;
11313;SDS011;5712;48.858;9.206;2022-08-04T08:29:32;1.90;;;1.77;;
11313;SDS011;5712;48.858;9.206;2022-08-04T08:32:00;2.33;;;1.63;;
11313;SDS011;5712;48.858;9.206;2022-08-04T08:34:27;1.70;;;1.60;;
11313;SDS011;5712;48.858;9.206;2022-08-04T08:36:57;2.90;;;1.90;;
11313;SDS011;5712;48.858;9.206;2022-08-04T08:39:28;2.63;;;1.83;;
11313;SDS011;5712;48.858;9.206;2022-08-04T08:42:23;1.85;;;1.75;;
11313;SDS011;5712;48.858;9.206;2022-08-04T08:45:13;2.20;;;2.00;;
11313;SDS011;5712;48.858;9.206;2022-08-04T08:48:02;2.03;;;1.80;;
11313;SDS011;5712;48.858;9.206;2022-08-04T08:50:49;2.10;;;1.85;;
11313;SDS011;5712;48.858;9.206;2022-08-04T08:53:36;1.80;;;1.70;;
11313;SDS011;5712;48.858;9.206;2022-08-04T08:56:22;2.53;;;1.92;;
11313;SDS011;5712;48.858;9.206;2022-08-04T08:59:12;1.90;;;1.80;;
11313;SDS011;5712;48.858;9.206;2022-08-04T09:01:57;4.55;;;1.88;;
11313;SDS011;5712;48.858;9.206;2022-08-04T09:04:44;3.90;;;1.85;;
11313;SDS011;5712;48.858;9.206;2022-08-04T09:07:40;3.03;;;2.03;;
11313;SDS011;5712;48.858;9.206;2022-08-04T09:10:19;2.60;;;2.20;;
11313;SDS011;5712;48.858;9.206;2022-08-04T09:12:50;1.95;;;1.83;;
11313;SDS011;5712;48.858;9.206;2022-08-04T09:15:26;2.58;;;1.95;;
11313;SDS011;5712;48.858;9.206;2022-08-04T09:18:00;2.30;;;2.10;;
11313;SDS011;5712;48.858;9.206;2022-08-04T09:20:30;2.20;;;2.00;;
11313;SDS011;5712;48.858;9.206;2022-08-04T09:23:12;3.05;;;2.05;;
11313;SDS011;5712;48.858;9.206;2022-08-04T09:25:47;2.30;;;2.10;;
11313;SDS011;5712;48.858;9.206;2022-08-04T09:28:19;2.67;;;2.10;;
11313;SDS011;5712;48.858;9.206;2022-08-04T09:30:51;3.35;;;2.05;;
11313;SDS011;5712;48.858;9.206;2022-08-04T09:33:23;2.40;;;2.00;;
11313;SDS011;5712;48.858;9.206;2022-08-04T09:35:56;2.22;;;2.03;;
11313;SDS011;5712;48.858;9.206;2022-08-04T09:38:28;2.45;;;2.10;;
11313;SDS011;5712;48.858;9.206;2022-08-04T09:41:01;2.13;;;2.03;;
11313;SDS011;5712;48.858;9.206;2022-08-04T09:43:39;2.20;;;2.00;;
11313;SDS011;5712;48.858;9.206;2022-08-04T09:46:16;2.97;;;2.10;;
11313;SDS011;5712;48.858;9.206;2022-08-04T09:48:50;2.10;;;1.90;;
11313;SDS011;5712;48.858;9.206;2022-08-04T09:51:23;3.53;;;2.10;;
11313;SDS011;5712;48.858;9.206;2022-08-04T09:54:08;2.55;;;2.10;;
11313;SDS011;5712;48.858;9.206;2022-08-04T09:56:41;2.20;;;2.03;;
11313;SDS011;5712;48.858;9.206;2022-08-04T09:59:17;3.55;;;2.28;;
11313;SDS011;5712;48.858;9.206;2022-08-04T10:01:52;2.28;;;2.10;;
11313;SDS011;5712;48.858;9.206;2022-08-04T10:04:21;3.45;;;2.00;;
11313;SDS011;5712;48.858;9.206;2022-08-04T10:07:03;2.60;;;2.13;;
11313;SDS011;5712;48.858;9.206;2022-08-04T10:09:56;1.95;;;1.83;;
11313;SDS011;5712;48.858;9.206;2022-08-04T10:12:44;2.85;;;2.03;;
11313;SDS011;5712;48.858;9.206;2022-08-04T10:15:30;2.08;;;1.80;;
11313;SDS011;5712;48.858;9.206;2022-08-04T10:18:07;2.47;;;2.28;;
11313;SDS011;5712;48.858;9.206;2022-08-04T10:23:35;2.00;;;1.90;;
11313;SDS011;5712;48.858;9.206;2022-08-04T10:26:13;2.17;;;2.08;;
11313;SDS011;5712;48.858;9.206;2022-08-04T10:28:50;2.38;;;2.17;;
11313;SDS011;5712;48.858;9.206;2022-08-04T10:31:22;2.78;;;2.15;;
11313;SDS011;5712;48.858;9.206;2022-08-04T10:33:57;2.10;;;2.00;;
11313;SDS011;5712;48.858;9.206;2022-08-04T10:36:30;2.70;;;2.22;;
11313;SDS011;5712;48.858;9.206;2022-08-04T10:39:06;2.20;;;2.00;;
11313;SDS011;5712;48.858;9.206;2022-08-04T10:41:39;3.03;;;1.90;;
11313;SDS011;5712;48.858;9.206;2022-08-04T10:44:13;2.10;;;1.90;;
11313;SDS011;5712;48.858;9.206;2022-08-04T10:46:49;2.20;;;2.08;;
11313;SDS011;5712;48.858;9.206;2022-08-04T10:49:22;4.15;;;2.10;;
11313;SDS011;5712;48.858;9.206;2022-08-04T10:51:50;3.15;;;2.13;;
11313;SDS011;5712;48.858;9.206;2022-08-04T10:54:21;2.00;;;1.77;;
11313;SDS011;5712;48.858;9.206;2022-08-04T10:56:53;2.08;;;1.65;;
11313;SDS011;5712;48.858;9.206;2022-08-04T10:59:25;2.10;;;1.90;;
11313;SDS011;5712;48.858;9.206;2022-08-04T11:01:59;2.00;;;1.80;;
11313;SDS011;5712;48.858;9.206;2022-08-04T11:04:40;1.40;;;1.30;;
11313;SDS011;5712;48.858;9.206;2022-08-04T11:07:09;1.50;;;1.40;;
11313;SDS011;5712;48.858;9.206;2022-08-04T11:09:37;2.45;;;1.40;;
11313;SDS011;5712;48.858;9.206;2022-08-04T11:12:06;1.90;;;1.70;;
11313;SDS011;5712;48.858;9.206;2022-08-04T11:14:41;2.05;;;1.70;;
11313;SDS011;5712;48.858;9.206;2022-08-04T11:17:14;2.45;;;1.77;;
11313;SDS011;5712;48.858;9.206;2022-08-04T11:19:47;1.92;;;1.80;;
11313;SDS011;5712;48.858;9.206;2022-08-04T11:22:19;1.75;;;1.65;;
11313;SDS011;5712;48.858;9.206;2022-08-04T11:24:51;2.15;;;1.60;;
11313;SDS011;5712;48.858;9.206;2022-08-04T11:27:22;1.55;;;1.45;;
11313;SDS011;5712;48.858;9.206;2022-08-04T11:29:55;1.92;;;1.80;;
11313;SDS011;5712;48.858;9.206;2022-08-04T11:32:30;2.20;;;1.70;;
11313;SDS011;5712;48.858;9.206;2022-08-04T11:35:05;1.65;;;1.55;;
11313;SDS011;5712;48.858;9.206;2022-08-04T11:37:35;1.70;;;1.60;;
11313;SDS011;5712;48.858;9.206;2022-08-04T11:40:11;2.13;;;1.92;;
11313;SDS011;5712;48.858;9.206;2022-08-04T11:42:50;2.10;;;1.73;;
11313;SDS011;5712;48.858;9.206;2022-08-04T11:45:24;2.10;;;1.90;;
11313;SDS011;5712;48.858;9.206;2022-08-04T11:47:56;2.22;;;2.00;;
11313;SDS011;5712;48.858;9.206;2022-08-04T11:50:28;2.08;;;1.88;;
11313;SDS011;5712;48.858;9.206;2022-08-04T11:52:58;2.10;;;1.83;;
11313;SDS011;5712;48.858;9.206;2022-08-04T11:55:26;2.00;;;1.90;;
11313;SDS011;5712;48.858;9.206;2022-08-04T11:57:53;1.90;;;1.80;;
11313;SDS011;5712;48.858;9.206;2022-08-04T12:00:21;2.30;;;2.10;;
11313;SDS011;5712;48.858;9.206;2022-08-04T12:05:54;2.40;;;1.95;;
11313;SDS011;5712;48.858;9.206;2022-08-04T12:08:35;2.85;;;2.25;;
11313;SDS011;5712;48.858;9.206;2022-08-04T12:11:15;2.03;;;1.80;;
11313;SDS011;5712;48.858;9.206;2022-08-04T12:13:53;2.20;;;2.00;;
11313;SDS011;5712;48.858;9.206;2022-08-04T12:16:31;2.53;;;1.83;;
11313;SDS011;5712;48.858;9.206;2022-08-04T12:19:06;2.08;;;1.92;;
11313;SDS011;5712;48.858;9.206;2022-08-04T12:21:44;3.03;;;2.03;;
11313;SDS011;5712;48.858;9.206;2022-08-04T12:24:16;2.47;;;2.10;;
11313;SDS011;5712;48.858;9.206;2022-08-04T12:26:47;2.45;;;2.00;;
11313;SDS011;5712;48.858;9.206;2022-08-04T12:29:18;2.05;;;1.95;;
11313;SDS011;5712;48.858;9.206;2022-08-04T12:31:48;2.22;;;2.03;;
11313;SDS011;5712;48.858;9.206;2022-08-04T12:34:20;3.28;;;2.20;;
11313;SDS011;5712;48.858;9.206;2022-08-04T12:37:00;2.25;;;2.10;;
11313;SDS011;5712;48.858;9.206;2022-08-04T12:39:30;2.47;;;2.28;;
11313;SDS011;5712;48.858;9.206;2022-08-04T12:41:59;2.20;;;2.00;;
11313;SDS011;5712;48.858;9.206;2022-08-04T12:44:32;2.92;;;2.10;;
11313;SDS011;5712;48.858;9.206;2022-08-04T12:47:00;2.30;;;2.10;;
11313;SDS011;5712;48.858;9.206;2022-08-04T12:49:29;2.53;;;1.98;;
11313;SDS011;5712;48.858;9.206;2022-08-04T12:51:58;2.40;;;2.00;;
11313;SDS011;5712;48.858;9.206;2022-08-04T12:54:25;2.72;;;1.90;;
11313;SDS011;5712;48.858;9.206;2022-08-04T12:56:55;2.72;;;1.92;;
11313;SDS011;5712;48.858;9.206;2022-08-04T12:59:24;3.08;;;2.33;;
11313;SDS011;5712;48.858;9.206;2022-08-04T13:01:50;2.47;;;2.20;;
11313;SDS011;5712;48.858;9.206;2022-08-04T13:04:19;2.33;;;2.10;;
11313;SDS011;5712;48.858;9.206;2022-08-04T13:06:51;3.20;;;2.20;;
11313;SDS011;5712;48.858;9.206;2022-08-04T13:09:24;1.85;;;1.75;;
11313;SDS011;5712;48.858;9.206;2022-08-04T13:11:55;2.55;;;1.98;;
11313;SDS011;5712;48.858;9.206;2022-08-04T13:14:27;2.47;;;2.25;;
11313;SDS011;5712;48.858;9.206;2022-08-04T13:16:58;5.07;;;2.10;;
11313;SDS011;5712;48.858;9.206;2022-08-04T13:19:26;3.33;;;2.00;;
11313;SDS011;5712;48.858;9.206;2022-08-04T13:21:54;2.25;;;2.03;;
11313;SDS011;5712;48.858;9.206;2022-08-04T13:24:23;2.47;;;2.17;;
11313;SDS011;5712;48.858;9.206;2022-08-04T13:26:52;2.15;;;2.00;;
11313;SDS011;5712;48.858;9.206;2022-08-04T13:29:23;2.10;;;2.00;;
11313;SDS011;5712;48.858;9.206;2022-08-04T13:31:50;2.28;;;2.08;;
11313;SDS011;5712;48.858;9.206;2022-08-04T13:34:18;2.38;;;1.77;;
11313;SDS011;5712;48.858;9.206;2022-08-04T13:36:46;2.28;;;2.08;;
11313;SDS011;5712;48.858;9.206;2022-08-04T13:39:14;2.30;;;2.03;;
11313;SDS011;5712;48.858;9.206;2022-08-04T13:41:45;2.08;;;1.98;;
11313;SDS011;5712;48.858;9.206;2022-08-04T13:44:17;2.13;;;1.85;;
11313;SDS011;5712;48.858;9.206;2022-08-04T13:46:46;2.72;;;2.10;;
11313;SDS011;5712;48.858;9.206;2022-08-04T13:49:16;2.20;;;2.00;;
11313;SDS011;5712;48.858;9.206;2022-08-04T13:51:45;2.20;;;2.10;;
11313;SDS011;5712;48.858;9.206;2022-08-04T13:54:13;2.30;;;2.10;;
11313;SDS011;5712;48.858;9.206;2022-08-04T13:56:41;2.58;;;2.00;;
11313;SDS011;5712;48.858;9.206;2022-08-04T13:59:13;2.67;;;2.10;;
11313;SDS011;5712;48.858;9.206;2022-08-04T14:01:42;2.65;;;1.90;;
11313;SDS011;5712;48.858;9.206;2022-08-04T14:04:11;2.88;;;2.22;;
11313;SDS011;5712;48.858;9.206;2022-08-04T14:06:44;3.15;;;2.28;;
11313;SDS011;5712;48.858;9.206;2022-08-04T14:09:16;2.30;;;2.10;;
11313;SDS011;5712;48.858;9.206;2022-08-04T14:11:45;2.25;;;2.05;;
11313;SDS011;5712;48.858;9.206;2022-08-04T14:14:14;2.40;;;2.20;;
11313;SDS011;5712;48.858;9.206;2022-08-04T14:16:55;2.03;;;1.90;;
11313;SDS011;5712;48.858;9.206;2022-08-04T14:19:25;2.85;;;1.95;;
11313;SDS011;5712;48.858;9.206;2022-08-04T14:21:52;2.22;;;2.03;;
11313;SDS011;5712;48.858;9.206;2022-08-04T14:24:22;2.25;;;2.05;;
11313;SDS011;5712;48.858;9.206;2022-08-04T14:26:52;2.40;;;2.20;;
11313;SDS011;5712;48.858;9.206;2022-08-04T14:29:23;2.65;;;2.05;;
11313;SDS011;5712;48.858;9.206;2022-08-04T14:31:50;2.25;;;2.05;;
11313;SDS011;5712;48.858;9.206;2022-08-04T14:34:27;2.30;;;2.10;;
11313;SDS011;5712;48.858;9.206;2022-08-04T14:36:55;2.13;;;1.92;;
11313;SDS011;5712;48.858;9.206;2022-08-04T14:39:35;2.50;;;2.30;;
11313;SDS011;5712;48.858;9.206;2022-08-04T14:42:04;2.53;;;2.30;;
11313;SDS011;5712;48.858;9.206;2022-08-04T14:44:31;2.28;;;2.10;;
11313;SDS011;5712;48.858;9.206;2022-08-04T14:47:16;2.25;;;2.05;;
11313;SDS011;5712;48.858;9.206;2022-08-04T14:49:52;2.63;;;2.15;;
11313;SDS011;5712;48.858;9.206;2022-08-04T14:52:21;2.65;;;2.40;;
11313;SDS011;5712;48.858;9.206;2022-08-04T14:54:50;2.65;;;2.20;;
11313;SDS011;5712;48.858;9.206;2022-08-04T14:57:18;2.70;;;2.20;;
11313;SDS011;5712;48.858;9.206;2022-08-04T14:59:45;2.30;;;2.10;;
11313;SDS011;5712;48.858;9.206;2022-08-04T15:02:14;2.20;;;2.10;;
11313;SDS011;5712;48.858;9.206;2022-08-04T15:04:41;2.50;;;2.30;;
11313;SDS011;5712;48.858;9.206;2022-08-04T15:07:10;2.75;;;2.20;;
11313;SDS011;5712;48.858;9.206;2022-08-04T15:09:37;2.30;;;2.10;;
11313;SDS011;5712;48.858;9.206;2022-08-04T15:12:04;3.15;;;2.35;;
11313;SDS011;5712;48.858;9.206;2022-08-04T15:14:32;3.50;;;2.15;;
11313;SDS011;5712;48.858;9.206;2022-08-04T15:17:00;3.65;;;2.30;;
11313;SDS011;5712;48.858;9.206;2022-08-04T15:19:27;2.78;;;2.30;;
11313;SDS011;5712;48.858;9.206;2022-08-04T15:21:56;2.40;;;2.20;;
11313;SDS011;5712;48.858;9.206;2022-08-04T15:24:22;3.30;;;2.33;;
11313;SDS011;5712;48.858;9.206;2022-08-04T15:26:50;2.33;;;2.13;;
11313;SDS011;5712;48.858;9.206;2022-08-04T15:29:22;2.38;;;2.28;;
11313;SDS011;5712;48.858;9.206;2022-08-04T15:31:53;3.17;;;2.20;;
11313;SDS011;5712;48.858;9.206;2022-08-04T15:34:22;2.40;;;2.20;;
11313;SDS011;5712;48.858;9.206;2022-08-04T15:36:51;2.78;;;2.20;;
11313;SDS011;5712;48.858;9.206;2022-08-04T15:39:25;2.10;;;2.00;;
11313;SDS011;5712;48.858;9.206;2022-08-04T15:42:01;2.88;;;2.38;;
11313;SDS011;5712;48.858;9.206;2022-08-04T15:51:00;2.50;;;2.30;;
11313;SDS011;5712;48.858;9.206;2022-08-04T15:53:30;2.22;;;2.03;;
11313;SDS011;5712;48.858;9.206;2022-08-04T15:55:57;2.30;;;2.10;;
11313;SDS011;5712;48.858;9.206;2022-08-04T15:58:24;2.50;;;2.30;;
11313;SDS011;5712;48.858;9.206;2022-08-04T16:03:40;2.67;;;2.10;;
11313;SDS011;5712;48.858;9.206;2022-08-04T16:09:19;2.60;;;2.20;;
11313;SDS011;5712;48.858;9.206;2022-08-04T16:11:50;2.40;;;2.20;;
11313;SDS011;5712;48.858;9.206;2022-08-04T16:14:28;2.40;;;2.20;;
11313;SDS011;5712;48.858;9.206;2022-08-04T16:16:56;2.60;;;2.40;;
11313;SDS011;5712;48.858;9.206;2022-08-04T16:19:44;2.53;;;2.15;;
11313;SDS011;5712;48.858;9.206;2022-08-04T16:22:32;2.75;;;2.38;;
11313;SDS011;5712;48.858;9.206;2022-08-04T16:25:01;3.25;;;2.20;;
11313;SDS011;5712;48.858;9.206;2022-08-04T16:27:36;3.25;;;2.38;;
11313;SDS011;5712;48.858;9.206;2022-08-04T16:30:04;2.53;;;2.28;;
11313;SDS011;5712;48.858;9.206;2022-08-04T16:32:38;2.30;;;2.10;;
11313;SDS011;5712;48.858;9.206;2022-08-04T16:35:17;2.92;;;2.40;;
11313;SDS011;5712;48.858;9.206;2022-08-04T16:37:47;12.95;;;2.83;;
11313;SDS011;5712;48.858;9.206;2022-08-04T16:40:24;2.63;;;2.42;;